sensor_id;sensor_type;location;lat;lon;timestamp;pressure;altitude;pressure_sealevel;temperature;humidity
56944;BME280;42848;42.524;12.052;2023-11-19T00:01:40;97333.44;;;9.20;100.00
56944;BME280;42848;42.524;12.052;2023-11-19T00:04:06;97326.72;;;9.18;100.00
56944;BME280;42848;42.524;12.052;2023-11-19T00:06:31;97325.94;;;9.31;100.00
56944;BME280;42848;42.524;12.052;2023-11-19T00:08:57;97326.28;;;9.43;100.00
56944;BME280;42848;42.524;12.052;2023-11-19T00:11:22;97324.28;;;9.16;100.00
56944;BME280;42848;42.524;12.052;2023-11-19T00:13:48;97321.41;;;9.26;100.00
56944;BME280;42848;42.524;12.052;2023-11-19T00:16:13;97330.84;;;8.96;100.00
56944;BME280;42848;42.524;12.052;2023-11-19T00:18:39;97317.91;;;9.26;100.00
56944;BME280;42848;42.524;12.052;2023-11-19T00:21:05;97331.09;;;9.13;100.00
56944;BME280;42848;42.524;12.052;2023-11-19T00:23:31;97332.44;;;8.97;100.00
56944;BME280;42848;42.524;12.052;2023-11-19T00:25:57;97333.97;;;9.03;100.00
56944;BME280;42848;42.524;12.052;2023-11-19T00:28:23;97336.00;;;9.11;100.00
56944;BME280;42848;42.524;12.052;2023-11-19T00:30:49;97342.19;;;8.79;100.00
56944;BME280;42848;42.524;12.052;2023-11-19T00:33:15;97332.31;;;8.70;100.00
56944;BME280;42848;42.524;12.052;2023-11-19T00:35:40;97329.31;;;8.90;100.00
56944;BME280;42848;42.524;12.052;2023-11-19T00:38:06;97334.41;;;8.92;100.00
56944;BME280;42848;42.524;12.052;2023-11-19T00:40:32;97336.53;;;8.95;100.00
56944;BME280;42848;42.524;12.052;2023-11-19T00:42:57;97347.06;;;8.77;100.00
56944;BME280;42848;42.524;12.052;2023-11-19T00:45:23;97346.13;;;8.68;100.00
56944;BME280;42848;42.524;12.052;2023-11-19T00:47:49;97338.41;;;9.13;100.00
56944;BME280;42848;42.524;12.052;2023-11-19T00:50:15;97322.69;;;9.15;100.00
56944;BME280;42848;42.524;12.052;2023-11-19T00:52:41;97330.94;;;9.05;100.00
56944;BME280;42848;42.524;12.052;2023-11-19T00:55:07;97333.00;;;9.13;100.00
56944;BME280;42848;42.524;12.052;2023-11-19T00:57:32;97338.44;;;8.94;100.00
56944;BME280;42848;42.524;12.052;2023-11-19T01:00:02;97331.78;;;8.87;100.00
56944;BME280;42848;42.524;12.052;2023-11-19T01:02:34;97328.13;;;8.96;100.00
56944;BME280;42848;42.524;12.052;2023-11-19T01:05:00;97325.28;;;9.06;100.00
56944;BME280;42848;42.524;12.052;2023-11-19T01:07:26;97335.97;;;8.98;100.00
56944;BME280;42848;42.524;12.052;2023-11-19T01:09:52;97330.00;;;8.96;100.00
56944;BME280;42848;42.524;12.052;2023-11-19T01:12:19;97329.91;;;9.20;100.00
56944;BME280;42848;42.524;12.052;2023-11-19T01:14:45;97327.50;;;9.18;100.00
56944;BME280;42848;42.524;12.052;2023-11-19T01:17:10;97320.72;;;9.02;100.00
56944;BME280;42848;42.524;12.052;2023-11-19T01:19:36;97322.13;;;8.99;100.00
56944;BME280;42848;42.524;12.052;2023-11-19T01:22:02;97321.84;;;8.82;100.00
56944;BME280;42848;42.524;12.052;2023-11-19T01:24:27;97315.78;;;8.71;100.00
56944;BME280;42848;42.524;12.052;2023-11-19T01:26:54;97317.16;;;8.88;100.00
56944;BME280;42848;42.524;12.052;2023-11-19T01:29:19;97317.53;;;8.81;100.00
56944;BME280;42848;42.524;12.052;2023-11-19T01:31:46;97317.97;;;8.69;100.00
56944;BME280;42848;42.524;12.052;2023-11-19T01:34:16;97308.66;;;8.75;100.00
56944;BME280;42848;42.524;12.052;2023-11-19T01:36:42;97304.50;;;8.64;100.00
56944;BME280;42848;42.524;12.052;2023-11-19T01:39:07;97298.88;;;8.79;100.00
56944;BME280;42848;42.524;12.052;2023-11-19T01:41:36;97300.31;;;8.91;100.00
56944;BME280;42848;42.524;12.052;2023-11-19T01:44:02;97293.53;;;8.74;100.00
56944;BME280;42848;42.524;12.052;2023-11-19T01:46:29;97290.63;;;8.71;100.00
56944;BME280;42848;42.524;12.052;2023-11-19T01:48:55;97295.38;;;8.60;100.00
56944;BME280;42848;42.524;12.052;2023-11-19T01:51:22;97285.56;;;8.64;100.00
56944;BME280;42848;42.524;12.052;2023-11-19T01:53:48;97286.66;;;8.82;100.00
56944;BME280;42848;42.524;12.052;2023-11-19T01:56:15;97285.84;;;8.81;100.00
56944;BME280;42848;42.524;12.052;2023-11-19T01:58:43;97276.28;;;8.70;100.00
56944;BME280;42848;42.524;12.052;2023-11-19T02:01:11;97288.88;;;8.61;100.00
56944;BME280;42848;42.524;12.052;2023-11-19T02:03:38;97283.03;;;8.87;100.00
56944;BME280;42848;42.524;12.052;2023-11-19T02:06:04;97270.94;;;8.65;100.00
56944;BME280;42848;42.524;12.052;2023-11-19T02:08:30;97271.28;;;8.77;100.00
56944;BME280;42848;42.524;12.052;2023-11-19T02:10:56;97267.50;;;8.78;100.00
56944;BME280;42848;42.524;12.052;2023-11-19T02:13:26;97270.28;;;8.73;100.00
56944;BME280;42848;42.524;12.052;2023-11-19T02:15:52;97274.78;;;8.59;100.00
56944;BME280;42848;42.524;12.052;2023-11-19T02:20:46;97279.31;;;8.82;100.00
56944;BME280;42848;42.524;12.052;2023-11-19T02:23:13;97285.34;;;8.79;100.00
56944;BME280;42848;42.524;12.052;2023-11-19T02:25:40;97289.50;;;8.72;100.00
56944;BME280;42848;42.524;12.052;2023-11-19T02:28:06;97288.34;;;8.78;100.00
56944;BME280;42848;42.524;12.052;2023-11-19T02:30:32;97279.25;;;8.88;100.00
56944;BME280;42848;42.524;12.052;2023-11-19T02:32:59;97279.53;;;8.86;100.00
56944;BME280;42848;42.524;12.052;2023-11-19T02:35:28;97269.75;;;8.71;100.00
56944;BME280;42848;42.524;12.052;2023-11-19T02:37:57;97281.84;;;8.79;100.00
56944;BME280;42848;42.524;12.052;2023-11-19T02:40:29;97261.66;;;8.71;100.00
56944;BME280;42848;42.524;12.052;2023-11-19T02:42:55;97259.88;;;8.80;100.00
56944;BME280;42848;42.524;12.052;2023-11-19T02:45:25;97255.56;;;8.79;100.00
56944;BME280;42848;42.524;12.052;2023-11-19T02:47:54;97257.50;;;8.60;100.00
56944;BME280;42848;42.524;12.052;2023-11-19T02:50:21;97259.38;;;8.78;100.00
56944;BME280;42848;42.524;12.052;2023-11-19T02:52:54;97256.25;;;8.52;100.00
56944;BME280;42848;42.524;12.052;2023-11-19T02:55:24;97262.38;;;8.58;100.00
56944;BME280;42848;42.524;12.052;2023-11-19T02:57:51;97258.94;;;8.71;100.00
56944;BME280;42848;42.524;12.052;2023-11-19T03:00:20;97255.56;;;8.79;100.00
56944;BME280;42848;42.524;12.052;2023-11-19T03:02:51;97257.16;;;8.80;100.00
56944;BME280;42848;42.524;12.052;2023-11-19T03:05:24;97253.56;;;8.85;100.00
56944;BME280;42848;42.524;12.052;2023-11-19T03:07:51;97255.66;;;8.55;100.00
56944;BME280;42848;42.524;12.052;2023-11-19T03:10:17;97251.91;;;8.70;100.00
56944;BME280;42848;42.524;12.052;2023-11-19T03:12:44;97248.19;;;8.66;100.00
56944;BME280;42848;42.524;12.052;2023-11-19T03:15:11;97244.22;;;8.59;100.00
56944;BME280;42848;42.524;12.052;2023-11-19T03:17:40;97246.72;;;8.55;100.00
56944;BME280;42848;42.524;12.052;2023-11-19T03:20:08;97244.22;;;8.59;100.00
56944;BME280;42848;42.524;12.052;2023-11-19T03:22:41;97241.81;;;8.57;100.00
56944;BME280;42848;42.524;12.052;2023-11-19T03:25:07;97238.28;;;8.75;100.00
56944;BME280;42848;42.524;12.052;2023-11-19T03:27:37;97232.69;;;8.53;100.00
56944;BME280;42848;42.524;12.052;2023-11-19T03:30:12;97231.06;;;8.71;100.00
56944;BME280;42848;42.524;12.052;2023-11-19T03:32:37;97229.97;;;8.72;100.00
56944;BME280;42848;42.524;12.052;2023-11-19T03:35:05;97238.78;;;8.77;100.00
56944;BME280;42848;42.524;12.052;2023-11-19T03:37:33;97232.88;;;8.75;100.00
56944;BME280;42848;42.524;12.052;2023-11-19T03:39:59;97235.03;;;8.41;100.00
56944;BME280;42848;42.524;12.052;2023-11-19T03:42:29;97230.34;;;8.65;100.00
56944;BME280;42848;42.524;12.052;2023-11-19T03:44:57;97236.25;;;8.67;100.00
56944;BME280;42848;42.524;12.052;2023-11-19T03:47:23;97229.50;;;8.83;100.00
56944;BME280;42848;42.524;12.052;2023-11-19T03:49:49;97223.72;;;8.90;100.00
56944;BME280;42848;42.524;12.052;2023-11-19T03:52:19;97231.44;;;8.64;100.00
56944;BME280;42848;42.524;12.052;2023-11-19T03:54:45;97223.28;;;8.50;100.00
56944;BME280;42848;42.524;12.052;2023-11-19T03:57:12;97224.41;;;8.63;100.00
56944;BME280;42848;42.524;12.052;2023-11-19T03:59:37;97223.66;;;8.76;100.00
56944;BME280;42848;42.524;12.052;2023-11-19T04:02:28;97215.75;;;8.80;100.00
56944;BME280;42848;42.524;12.052;2023-11-19T04:04:54;97210.97;;;8.58;100.00
56944;BME280;42848;42.524;12.052;2023-11-19T04:07:20;97198.38;;;8.67;100.00
56944;BME280;42848;42.524;12.052;2023-11-19T04:09:46;97200.53;;;8.51;100.00
56944;BME280;42848;42.524;12.052;2023-11-19T04:12:12;97198.78;;;8.74;100.00
56944;BME280;42848;42.524;12.052;2023-11-19T04:14:37;97183.34;;;8.75;100.00
56944;BME280;42848;42.524;12.052;2023-11-19T04:17:03;97180.91;;;8.60;100.00
56944;BME280;42848;42.524;12.052;2023-11-19T04:19:29;97188.84;;;8.37;100.00
56944;BME280;42848;42.524;12.052;2023-11-19T04:21:54;97180.34;;;8.44;100.00
56944;BME280;42848;42.524;12.052;2023-11-19T04:24:20;97177.91;;;8.61;100.00
56944;BME280;42848;42.524;12.052;2023-11-19T04:26:45;97186.91;;;8.57;100.00
56944;BME280;42848;42.524;12.052;2023-11-19T04:29:16;97174.41;;;8.61;100.00
56944;BME280;42848;42.524;12.052;2023-11-19T04:31:43;97179.56;;;8.43;100.00
56944;BME280;42848;42.524;12.052;2023-11-19T04:34:12;97180.91;;;8.60;100.00
56944;BME280;42848;42.524;12.052;2023-11-19T04:36:38;97193.22;;;8.52;100.00
56944;BME280;42848;42.524;12.052;2023-11-19T04:39:05;97188.75;;;8.23;100.00
56944;BME280;42848;42.524;12.052;2023-11-19T04:41:46;97192.47;;;8.46;100.00
56944;BME280;42848;42.524;12.052;2023-11-19T04:44:13;97186.69;;;8.53;100.00
56944;BME280;42848;42.524;12.052;2023-11-19T04:46:39;97186.03;;;8.61;100.00
56944;BME280;42848;42.524;12.052;2023-11-19T04:49:04;97178.22;;;8.60;100.00
56944;BME280;42848;42.524;12.052;2023-11-19T04:51:30;97189.78;;;8.46;100.00
56944;BME280;42848;42.524;12.052;2023-11-19T04:53:55;97187.44;;;8.40;100.00
56944;BME280;42848;42.524;12.052;2023-11-19T04:56:21;97186.03;;;8.61;100.00
56944;BME280;42848;42.524;12.052;2023-11-19T04:58:48;97196.13;;;8.55;100.00
56944;BME280;42848;42.524;12.052;2023-11-19T05:01:14;97180.31;;;8.63;100.00
56944;BME280;42848;42.524;12.052;2023-11-19T05:03:43;97188.91;;;8.51;100.00
56944;BME280;42848;42.524;12.052;2023-11-19T05:06:09;97183.63;;;8.60;100.00
56944;BME280;42848;42.524;12.052;2023-11-19T05:08:35;97187.03;;;8.65;100.00
56944;BME280;42848;42.524;12.052;2023-11-19T05:11:02;97191.16;;;8.76;100.00
56944;BME280;42848;42.524;12.052;2023-11-19T05:13:28;97189.75;;;8.65;100.00
56944;BME280;42848;42.524;12.052;2023-11-19T05:15:54;97188.47;;;8.76;100.00
56944;BME280;42848;42.524;12.052;2023-11-19T05:18:20;97191.16;;;8.76;100.00
56944;BME280;42848;42.524;12.052;2023-11-19T05:20:46;97196.22;;;8.83;100.00
56944;BME280;42848;42.524;12.052;2023-11-19T05:23:11;97193.19;;;8.84;100.00
56944;BME280;42848;42.524;12.052;2023-11-19T05:25:37;97195.22;;;8.93;100.00
56944;BME280;42848;42.524;12.052;2023-11-19T05:28:02;97188.28;;;8.87;100.00
56944;BME280;42848;42.524;12.052;2023-11-19T05:30:28;97192.03;;;8.91;100.00
56944;BME280;42848;42.524;12.052;2023-11-19T05:32:54;97189.81;;;8.93;100.00
56944;BME280;42848;42.524;12.052;2023-11-19T05:35:19;97183.41;;;8.89;100.00
56944;BME280;42848;42.524;12.052;2023-11-19T05:37:45;97188.47;;;8.76;100.00
56944;BME280;42848;42.524;12.052;2023-11-19T05:40:10;97189.25;;;8.77;100.00
56944;BME280;42848;42.524;12.052;2023-11-19T05:42:43;97185.56;;;8.73;100.00
56944;BME280;42848;42.524;12.052;2023-11-19T05:45:11;97191.34;;;8.66;100.00
56944;BME280;42848;42.524;12.052;2023-11-19T05:47:37;97193.72;;;8.54;100.00
56944;BME280;42848;42.524;12.052;2023-11-19T05:50:03;97201.25;;;8.90;100.00
56944;BME280;42848;42.524;12.052;2023-11-19T05:52:31;97202.94;;;8.86;100.00
56944;BME280;42848;42.524;12.052;2023-11-19T05:55:01;97184.50;;;8.88;100.00
56944;BME280;42848;42.524;12.052;2023-11-19T05:57:30;97200.50;;;8.70;100.00
56944;BME280;42848;42.524;12.052;2023-11-19T05:59:56;97200.88;;;8.96;100.00
56944;BME280;42848;42.524;12.052;2023-11-19T06:02:22;97194.84;;;8.67;100.00
56944;BME280;42848;42.524;12.052;2023-11-19T06:04:47;97187.22;;;8.88;100.00
56944;BME280;42848;42.524;12.052;2023-11-19T06:07:14;97198.03;;;8.88;100.00
56944;BME280;42848;42.524;12.052;2023-11-19T06:09:40;97194.19;;;8.75;100.00
56944;BME280;42848;42.524;12.052;2023-11-19T06:12:06;97190.78;;;8.69;100.00
56944;BME280;42848;42.524;12.052;2023-11-19T06:14:32;97189.13;;;9.01;100.00
56944;BME280;42848;42.524;12.052;2023-11-19T06:16:58;97194.53;;;8.87;100.00
56944;BME280;42848;42.524;12.052;2023-11-19T06:19:24;97186.69;;;8.86;100.00
56944;BME280;42848;42.524;12.052;2023-11-19T06:21:52;97186.97;;;8.70;100.00
56944;BME280;42848;42.524;12.052;2023-11-19T06:24:18;97189.00;;;8.78;100.00
56944;BME280;42848;42.524;12.052;2023-11-19T06:26:43;97185.59;;;8.87;100.00
56944;BME280;42848;42.524;12.052;2023-11-19T06:29:09;97185.44;;;8.97;100.00
56944;BME280;42848;42.524;12.052;2023-11-19T06:31:34;97188.00;;;8.88;100.00
56944;BME280;42848;42.524;12.052;2023-11-19T06:34:00;97180.34;;;8.76;100.00
56944;BME280;42848;42.524;12.052;2023-11-19T06:36:26;97191.41;;;8.80;100.00
56944;BME280;42848;42.524;12.052;2023-11-19T06:38:52;97181.19;;;8.58;100.00
56944;BME280;42848;42.524;12.052;2023-11-19T06:41:18;97192.03;;;8.91;100.00
56944;BME280;42848;42.524;12.052;2023-11-19T06:43:43;97191.75;;;8.60;100.00
56944;BME280;42848;42.524;12.052;2023-11-19T06:46:18;97195.31;;;8.55;100.00
56944;BME280;42848;42.524;12.052;2023-11-19T06:48:44;97190.41;;;8.90;100.00
56944;BME280;42848;42.524;12.052;2023-11-19T06:51:11;97195.47;;;8.96;100.00
56944;BME280;42848;42.524;12.052;2023-11-19T06:53:37;97190.50;;;8.52;100.00
56944;BME280;42848;42.524;12.052;2023-11-19T06:56:03;97195.91;;;8.52;100.00
56944;BME280;42848;42.524;12.052;2023-11-19T06:58:36;97194.19;;;8.75;100.00
56944;BME280;42848;42.524;12.052;2023-11-19T07:01:02;97196.66;;;9.04;100.00
56944;BME280;42848;42.524;12.052;2023-11-19T07:03:28;97200.78;;;8.69;100.00
56944;BME280;42848;42.524;12.052;2023-11-19T07:05:53;97208.78;;;8.60;100.00
56944;BME280;42848;42.524;12.052;2023-11-19T07:08:21;97206.31;;;8.45;100.00
56944;BME280;42848;42.524;12.052;2023-11-19T07:10:46;97209.75;;;8.50;100.00
56944;BME280;42848;42.524;12.052;2023-11-19T07:13:12;97215.88;;;8.89;100.00
56944;BME280;42848;42.524;12.052;2023-11-19T07:15:38;97213.69;;;8.91;100.00
56944;BME280;42848;42.524;12.052;2023-11-19T07:18:04;97208.56;;;8.89;100.00
56944;BME280;42848;42.524;12.052;2023-11-19T07:20:29;97212.81;;;8.76;100.00
56944;BME280;42848;42.524;12.052;2023-11-19T07:22:56;97215.78;;;8.94;100.00
56944;BME280;42848;42.524;12.052;2023-11-19T07:25:22;97206.13;;;9.20;100.00
56944;BME280;42848;42.524;12.052;2023-11-19T07:27:49;97213.31;;;9.11;100.00
56944;BME280;42848;42.524;12.052;2023-11-19T07:30:14;97210.41;;;9.07;100.00
56944;BME280;42848;42.524;12.052;2023-11-19T07:32:40;97203.53;;;9.15;100.00
56944;BME280;42848;42.524;12.052;2023-11-19T07:35:06;97214.34;;;9.29;100.00
56944;BME280;42848;42.524;12.052;2023-11-19T07:37:32;97214.78;;;9.36;100.00
56944;BME280;42848;42.524;12.052;2023-11-19T07:39:58;97214.66;;;9.27;100.00
56944;BME280;42848;42.524;12.052;2023-11-19T07:42:23;97210.00;;;9.14;100.00
56944;BME280;42848;42.524;12.052;2023-11-19T07:44:49;97212.97;;;9.45;100.00
56944;BME280;42848;42.524;12.052;2023-11-19T07:47:14;97201.22;;;9.50;100.00
56944;BME280;42848;42.524;12.052;2023-11-19T07:49:40;97201.41;;;9.39;100.00
56944;BME280;42848;42.524;12.052;2023-11-19T07:52:05;97190.97;;;9.19;100.00
56944;BME280;42848;42.524;12.052;2023-11-19T07:54:32;97204.72;;;9.50;100.00
56944;BME280;42848;42.524;12.052;2023-11-19T07:57:23;97207.34;;;9.69;100.00
56944;BME280;42848;42.524;12.052;2023-11-19T07:59:50;97206.34;;;9.65;100.00
56944;BME280;42848;42.524;12.052;2023-11-19T08:02:15;97202.44;;;9.71;100.00
56944;BME280;42848;42.524;12.052;2023-11-19T08:04:41;97206.06;;;9.80;100.00
56944;BME280;42848;42.524;12.052;2023-11-19T08:07:10;97212.16;;;10.00;100.00
56944;BME280;42848;42.524;12.052;2023-11-19T08:09:36;97208.50;;;10.18;100.00
56944;BME280;42848;42.524;12.052;2023-11-19T08:12:03;97206.09;;;10.16;100.00
56944;BME280;42848;42.524;12.052;2023-11-19T08:14:29;97210.72;;;10.16;100.00
56944;BME280;42848;42.524;12.052;2023-11-19T08:16:54;97219.25;;;10.23;100.00
56944;BME280;42848;42.524;12.052;2023-11-19T08:19:20;97216.38;;;9.92;100.00
56944;BME280;42848;42.524;12.052;2023-11-19T08:21:46;97212.16;;;10.00;100.00
56944;BME280;42848;42.524;12.052;2023-11-19T08:24:11;97215.34;;;10.02;100.00
56944;BME280;42848;42.524;12.052;2023-11-19T08:26:37;97203.50;;;10.25;100.00
56944;BME280;42848;42.524;12.052;2023-11-19T08:29:02;97195.78;;;10.41;100.00
56944;BME280;42848;42.524;12.052;2023-11-19T08:31:28;97195.38;;;10.47;100.00
56944;BME280;42848;42.524;12.052;2023-11-19T08:33:54;97207.81;;;10.48;100.00
56944;BME280;42848;42.524;12.052;2023-11-19T08:36:25;97219.66;;;10.30;100.00
56944;BME280;42848;42.524;12.052;2023-11-19T08:38:51;97213.31;;;10.57;100.00
56944;BME280;42848;42.524;12.052;2023-11-19T08:41:17;97225.00;;;10.58;100.00
56944;BME280;42848;42.524;12.052;2023-11-19T08:43:44;97230.47;;;10.66;100.00
56944;BME280;42848;42.524;12.052;2023-11-19T08:46:11;97222.56;;;10.78;100.00
56944;BME280;42848;42.524;12.052;2023-11-19T08:48:38;97223.63;;;10.69;100.00
56944;BME280;42848;42.524;12.052;2023-11-19T08:51:04;97224.00;;;10.76;100.00
56944;BME280;42848;42.524;12.052;2023-11-19T08:53:30;97223.41;;;10.79;100.00
56944;BME280;42848;42.524;12.052;2023-11-19T08:55:55;97231.78;;;10.91;100.00
56944;BME280;42848;42.524;12.052;2023-11-19T08:58:21;97224.19;;;11.02;100.00
56944;BME280;42848;42.524;12.052;2023-11-19T09:00:47;97218.44;;;11.03;100.00
56944;BME280;42848;42.524;12.052;2023-11-19T09:03:12;97218.81;;;11.10;100.00
56944;BME280;42848;42.524;12.052;2023-11-19T09:05:38;97227.81;;;11.20;100.00
56944;BME280;42848;42.524;12.052;2023-11-19T09:08:04;97227.38;;;11.26;100.00
56944;BME280;42848;42.524;12.052;2023-11-19T09:10:30;97227.44;;;11.35;100.00
56944;BME280;42848;42.524;12.052;2023-11-19T09:12:55;97219.13;;;11.40;100.00
56944;BME280;42848;42.524;12.052;2023-11-19T09:15:21;97233.72;;;11.44;100.00
56944;BME280;42848;42.524;12.052;2023-11-19T09:17:46;97239.16;;;11.44;100.00
56944;BME280;42848;42.524;12.052;2023-11-19T09:20:12;97236.72;;;11.43;100.00
56944;BME280;42848;42.524;12.052;2023-11-19T09:22:41;97244.44;;;11.49;100.00
56944;BME280;42848;42.524;12.052;2023-11-19T09:25:08;97239.84;;;11.58;100.00
56944;BME280;42848;42.524;12.052;2023-11-19T09:27:34;97245.47;;;11.62;100.00
56944;BME280;42848;42.524;12.052;2023-11-19T09:30:00;97247.72;;;11.68;100.00
56944;BME280;42848;42.524;12.052;2023-11-19T09:32:26;97244.94;;;11.82;100.00
56944;BME280;42848;42.524;12.052;2023-11-19T09:34:51;97249.50;;;11.73;100.00
56944;BME280;42848;42.524;12.052;2023-11-19T09:37:17;97248.22;;;11.71;100.00
56944;BME280;42848;42.524;12.052;2023-11-19T09:39:42;97243.91;;;11.78;100.00
56944;BME280;42848;42.524;12.052;2023-11-19T09:42:17;97233.81;;;11.79;100.00
56944;BME280;42848;42.524;12.052;2023-11-19T09:44:44;97234.63;;;11.79;100.00
56944;BME280;42848;42.524;12.052;2023-11-19T09:47:12;97230.53;;;11.82;100.00
56944;BME280;42848;42.524;12.052;2023-11-19T09:49:39;97238.06;;;11.85;100.00
56944;BME280;42848;42.524;12.052;2023-11-19T09:52:05;97239.66;;;11.86;100.00
56944;BME280;42848;42.524;12.052;2023-11-19T09:54:31;97228.28;;;11.84;100.00
56944;BME280;42848;42.524;12.052;2023-11-19T09:56:58;97236.13;;;11.85;100.00
56944;BME280;42848;42.524;12.052;2023-11-19T09:59:29;97225.56;;;11.84;100.00
56944;BME280;42848;42.524;12.052;2023-11-19T10:01:56;97235.66;;;11.83;100.00
56944;BME280;42848;42.524;12.052;2023-11-19T10:04:23;97222.03;;;11.83;100.00
56944;BME280;42848;42.524;12.052;2023-11-19T10:06:52;97229.44;;;11.91;100.00
56944;BME280;42848;42.524;12.052;2023-11-19T10:09:18;97228.16;;;11.89;100.00
56944;BME280;42848;42.524;12.052;2023-11-19T10:11:44;97228.97;;;11.98;100.00
56944;BME280;42848;42.524;12.052;2023-11-19T10:14:10;97226.41;;;11.93;100.00
56944;BME280;42848;42.524;12.052;2023-11-19T10:16:35;97220.00;;;12.06;100.00
56944;BME280;42848;42.524;12.052;2023-11-19T10:19:01;97213.47;;;12.16;100.00
56944;BME280;42848;42.524;12.052;2023-11-19T10:21:27;97220.69;;;12.20;100.00
56944;BME280;42848;42.524;12.052;2023-11-19T10:23:55;97214.72;;;12.01;100.00
56944;BME280;42848;42.524;12.052;2023-11-19T10:26:26;97210.25;;;12.05;100.00
56944;BME280;42848;42.524;12.052;2023-11-19T10:28:52;97211.06;;;12.14;100.00
56944;BME280;42848;42.524;12.052;2023-11-19T10:31:20;97208.34;;;12.14;100.00
56944;BME280;42848;42.524;12.052;2023-11-19T10:33:55;97210.75;;;12.33;100.00
56944;BME280;42848;42.524;12.052;2023-11-19T10:36:21;97200.38;;;12.27;100.00
56944;BME280;42848;42.524;12.052;2023-11-19T10:38:53;97201.63;;;12.20;100.00
56944;BME280;42848;42.524;12.052;2023-11-19T10:41:32;97193.94;;;12.22;100.00
56944;BME280;42848;42.524;12.052;2023-11-19T10:43:58;97197.63;;;12.52;100.00
56944;BME280;42848;42.524;12.052;2023-11-19T10:46:38;97193.97;;;12.48;100.00
56944;BME280;42848;42.524;12.052;2023-11-19T10:49:05;97194.94;;;12.27;100.00
56944;BME280;42848;42.524;12.052;2023-11-19T10:51:32;97189.16;;;12.28;100.00
56944;BME280;42848;42.524;12.052;2023-11-19T10:54:03;97194.44;;;12.42;100.00
56944;BME280;42848;42.524;12.052;2023-11-19T10:56:33;97191.41;;;12.52;100.00
56944;BME280;42848;42.524;12.052;2023-11-19T10:59:00;97192.84;;;12.41;100.00
56944;BME280;42848;42.524;12.052;2023-11-19T11:01:38;97185.66;;;12.45;100.00
56944;BME280;42848;42.524;12.052;2023-11-19T11:04:11;97183.22;;;12.43;100.00
56944;BME280;42848;42.524;12.052;2023-11-19T11:06:39;97174.75;;;12.62;100.00
56944;BME280;42848;42.524;12.052;2023-11-19T11:09:06;97176.50;;;12.58;100.00
56944;BME280;42848;42.524;12.052;2023-11-19T11:11:38;97166.41;;;12.59;100.00
56944;BME280;42848;42.524;12.052;2023-11-19T11:14:04;97158.41;;;12.62;100.00
56944;BME280;42848;42.524;12.052;2023-11-19T11:16:31;97154.06;;;12.70;100.00
56944;BME280;42848;42.524;12.052;2023-11-19T11:18:57;97147.44;;;12.88;100.00
56944;BME280;42848;42.524;12.052;2023-11-19T11:21:25;97145.41;;;12.76;100.00
56944;BME280;42848;42.524;12.052;2023-11-19T11:40:01;97126.38;;;13.15;100.00
56944;BME280;42848;42.524;12.052;2023-11-19T11:42:32;97118.53;;;13.13;100.00
56944;BME280;42848;42.524;12.052;2023-11-19T11:44:59;97116.59;;;13.22;100.00
56944;BME280;42848;42.524;12.052;2023-11-19T11:55:33;97099.69;;;12.91;100.00
56944;BME280;42848;42.524;12.052;2023-11-19T11:58:00;97102.84;;;13.10;100.00
56944;BME280;42848;42.524;12.052;2023-11-19T12:03:00;97106.34;;;13.19;100.00
56944;BME280;42848;42.524;12.052;2023-11-19T12:05:26;97105.63;;;13.40;100.00
56944;BME280;42848;42.524;12.052;2023-11-19T12:10:25;97103.06;;;13.34;100.00
56944;BME280;42848;42.524;12.052;2023-11-19T12:12:58;97095.09;;;13.29;100.00
56944;BME280;42848;42.524;12.052;2023-11-19T12:15:24;97096.97;;;13.37;100.00
56944;BME280;42848;42.524;12.052;2023-11-19T12:17:52;97092.44;;;13.42;100.00
56944;BME280;42848;42.524;12.052;2023-11-19T12:20:19;97091.53;;;13.37;100.00
56944;BME280;42848;42.524;12.052;2023-11-19T12:22:46;97093.25;;;13.42;100.00
56944;BME280;42848;42.524;12.052;2023-11-19T12:25:15;97091.44;;;13.55;100.00
56944;BME280;42848;42.524;12.052;2023-11-19T12:27:47;97093.06;;;13.47;100.00
56944;BME280;42848;42.524;12.052;2023-11-19T12:30:23;97089.22;;;13.48;100.00
56944;BME280;42848;42.524;12.052;2023-11-19T12:32:54;97092.81;;;13.61;100.00
56944;BME280;42848;42.524;12.052;2023-11-19T12:35:20;97087.22;;;13.57;100.00
56944;BME280;42848;42.524;12.052;2023-11-19T12:37:50;97088.59;;;13.72;100.00
56944;BME280;42848;42.524;12.052;2023-11-19T12:40:23;97082.25;;;13.59;100.00
56944;BME280;42848;42.524;12.052;2023-11-19T12:42:50;97075.88;;;13.76;100.00
56944;BME280;42848;42.524;12.052;2023-11-19T12:45:19;97079.06;;;13.78;100.00
56944;BME280;42848;42.524;12.052;2023-11-19T12:47:47;97081.16;;;13.81;100.00
56944;BME280;42848;42.524;12.052;2023-11-19T12:50:14;97091.84;;;13.86;100.00
56944;BME280;42848;42.524;12.052;2023-11-19T12:52:40;97085.66;;;13.77;100.00
56944;BME280;42848;42.524;12.052;2023-11-19T12:55:27;97085.66;;;13.77;100.00
56944;BME280;42848;42.524;12.052;2023-11-19T12:57:53;97080.53;;;13.76;100.00
56944;BME280;42848;42.524;12.052;2023-11-19T13:00:21;97078.16;;;13.74;100.00
56944;BME280;42848;42.524;12.052;2023-11-19T13:02:55;97081.22;;;13.73;100.00
56944;BME280;42848;42.524;12.052;2023-11-19T13:07:47;97073.03;;;13.73;100.00
56944;BME280;42848;42.524;12.052;2023-11-19T13:10:13;97076.38;;;13.99;100.00
56944;BME280;42848;42.524;12.052;2023-11-19T13:12:38;97062.13;;;13.93;100.00
56944;BME280;42848;42.524;12.052;2023-11-19T13:15:05;97071.63;;;14.08;100.00
56944;BME280;42848;42.524;12.052;2023-11-19T13:17:31;97069.03;;;14.12;100.00
56944;BME280;42848;42.524;12.052;2023-11-19T13:19:56;97070.81;;;14.08;100.00